Time;durP1;ratioP1;P1;durP2;ratioP2;P2;SDS_P1;SDS_P2;PMS_P1;PMS_P2;Temp;Humidity;BMP_temperature;BMP_pressure;BME280_temperature;BME280_humidity;BME280_pressure;Samples;Min_cycle;Max_cycle;Signal;HPM_P1;HPM_P2
2021/06/12 00:00:32;;;;;;;10.13;8.85;;;;;;;19.46;57.00;100369.97;127437;1101;22373;-77
2021/06/12 00:03:17;;;;;;;9.50;8.50;;;;;;;19.45;56.71;100359.47;127983;1101;22385;-76
2021/06/12 00:05:47;;;;;;;14.40;11.80;;;;;;;19.46;56.67;100353.05;127671;1101;24295;-78
2021/06/12 00:08:18;;;;;;;14.03;12.10;;;;;;;19.46;56.68;100363.77;127655;1101;22452;-78
2021/06/12 00:10:48;;;;;;;13.30;11.85;;;;;;;19.47;56.83;100357.39;127638;1102;23085;-78
2021/06/12 00:13:18;;;;;;;11.85;10.68;;;;;;;19.47;56.48;100360.07;127578;1104;22433;-77
2021/06/12 00:15:48;;;;;;;12.40;11.03;;;;;;;19.46;56.53;100363.77;127604;1100;22418;-77
2021/06/12 00:18:18;;;;;;;13.13;10.83;;;;;;;19.44;56.53;100371.23;127653;1098;22398;-77
2021/06/12 00:20:48;;;;;;;15.10;11.30;;;;;;;19.40;56.82;100370.88;127929;1101;22384;-77
2021/06/12 00:23:18;;;;;;;12.78;11.55;;;;;;;19.35;57.20;100365.36;127679;1101;22401;-76
2021/06/12 00:25:48;;;;;;;15.15;13.45;;;;;;;19.32;57.12;100360.45;127781;1100;25124;-76
2021/06/12 00:28:20;;;;;;;13.60;12.28;;;;;;;19.27;57.33;100357.64;127966;1098;22385;-77
2021/06/12 00:30:50;;;;;;;15.38;11.45;;;;;;;19.24;57.50;100361.58;128147;1095;22355;-77
2021/06/12 00:33:20;;;;;;;14.98;11.68;;;;;;;19.22;57.41;100352.13;128286;1095;22372;-78
2021/06/12 00:35:51;;;;;;;14.28;11.78;;;;;;;19.20;58.03;100352.36;128264;1094;22372;-77
2021/06/12 00:38:21;;;;;;;13.00;11.73;;;;;;;19.18;58.13;100350.95;128299;1095;22357;-77
2021/06/12 00:40:51;;;;;;;14.60;12.93;;;;;;;19.14;57.93;100349.77;128641;1092;22341;-77
2021/06/12 00:43:21;;;;;;;13.68;12.40;;;;;;;19.11;58.18;100350.20;128347;1095;22359;-77
2021/06/12 00:45:54;;;;;;;14.10;12.58;;;;;;;19.06;58.45;100342.86;128606;1095;22362;-78
2021/06/12 00:48:28;;;;;;;13.88;12.45;;;;;;;19.01;58.31;100348.86;128570;1095;22377;-77
2021/06/12 00:50:59;;;;;;;13.38;11.98;;;;;;;18.95;58.47;100343.58;128591;1092;22337;-77
2021/06/12 00:53:42;;;;;;;14.03;12.55;;;;;;;18.90;58.89;100341.59;128605;1092;22349;-77
2021/06/12 00:56:18;;;;;;;13.68;11.03;;;;;;;18.87;58.81;100341.22;128619;1095;22375;-78
2021/06/12 00:58:52;;;;;;;13.45;11.43;;;;;;;18.81;58.98;100337.56;128355;1092;24990;-77
2021/06/12 01:01:42;;;;;;;12.25;11.05;;;;;;;18.77;58.94;100339.05;128401;1092;23205;-76
2021/06/12 01:04:15;;;;;;;14.93;13.48;;;;;;;18.75;59.02;100341.13;128632;1092;23124;-77
2021/06/12 01:06:49;;;;;;;16.15;13.35;;;;;;;18.70;59.20;100343.63;128392;1092;22356;-77
2021/06/12 01:09:22;;;;;;;12.58;11.35;;;;;;;18.66;59.75;100339.73;128646;1092;22391;-78
2021/06/12 01:12:36;;;;;;;13.30;12.10;;;;;;;18.59;59.57;100345.15;128331;1095;22375;-77
2021/06/12 01:15:10;;;;;;;12.88;11.78;;;;;;;18.51;59.84;100337.42;127972;1098;22436;-78
2021/06/12 01:17:48;;;;;;;13.85;12.45;;;;;;;18.47;60.01;100331.69;128023;1098;22391;-77
2021/06/12 01:20:39;;;;;;;15.05;13.70;;;;;;;18.44;60.34;100332.13;127984;1098;22394;-77
2021/06/12 01:24:06;;;;;;;15.73;13.70;;;;;;;18.43;60.28;100332.36;128294;1098;22412;-77
2021/06/12 01:27:08;;;;;;;13.70;12.38;;;;;;;18.36;60.79;100329.75;127650;1101;24221;-78
2021/06/12 01:30:07;;;;;;;;;;;;;;;18.29;60.76;100323.61;127675;1098;22381;-76
2021/06/12 01:32:45;;;;;;;14.40;12.95;;;;;;;18.21;60.44;100330.06;127574;1101;21283;-77
2021/06/12 01:35:45;;;;;;;14.40;13.10;;;;;;;18.21;60.63;100329.25;127576;1101;22478;-78
2021/06/12 01:38:24;;;;;;;13.93;12.53;;;;;;;18.18;60.80;100318.98;127558;1101;22421;-76
2021/06/12 01:41:01;;;;;;;15.00;13.50;;;;;;;18.17;60.65;100320.85;127505;1101;22422;-77
2021/06/12 01:43:35;;;;;;;15.33;13.08;;;;;;;18.18;61.08;100327.02;127560;1101;23955;-78
2021/06/12 01:46:11;;;;;;;15.15;13.05;;;;;;;18.17;61.10;100326.20;127551;1101;22474;-77
2021/06/12 01:48:44;;;;;;;13.60;12.18;;;;;;;18.15;61.12;100328.25;127609;1101;22364;-77
2021/06/12 01:51:16;;;;;;;15.43;13.10;;;;;;;18.14;61.43;100320.47;127336;1101;22456;-78
2021/06/12 01:53:52;;;;;;;14.78;13.28;;;;;;;18.10;61.51;100322.77;127563;1101;22429;-77
2021/06/12 01:56:26;;;;;;;14.05;12.75;;;;;;;18.06;61.89;100316.19;127518;1104;22405;-76
2021/06/12 01:59:00;;;;;;;15.30;13.88;;;;;;;18.02;61.60;100318.48;127521;1101;23872;-78
2021/06/12 02:01:32;;;;;;;;;;;;;;;17.93;61.61;100318.99;127620;1101;23256;-77
2021/06/12 02:04:03;;;;;;;15.95;14.33;;;;;;;17.84;62.29;100311.22;127874;1101;22180;-78
2021/06/12 02:06:35;;;;;;;16.78;14.95;;;;;;;17.83;62.14;100316.80;127988;1101;24228;-78
2021/06/12 02:09:05;;;;;;;17.68;16.08;;;;;;;17.79;62.54;100315.56;128072;1095;22377;-77
2021/06/12 02:11:37;;;;;;;15.78;14.28;;;;;;;17.76;62.81;100308.83;128319;1095;24239;-78
2021/06/12 02:14:09;;;;;;;15.08;13.70;;;;;;;17.76;62.96;100313.29;128849;1095;22345;-78
2021/06/12 02:16:40;;;;;;;16.78;15.05;;;;;;;17.74;63.01;100316.20;128305;1095;23129;-79
2021/06/12 02:19:13;;;;;;;16.20;14.50;;;;;;;17.74;63.05;100310.04;128298;1095;22353;-76
2021/06/12 02:21:44;;;;;;;14.97;13.57;;;;;;;17.75;63.13;100312.48;128059;1098;22398;-77
2021/06/12 02:24:14;;;;;;;15.53;14.13;;;;;;;17.76;63.17;100313.29;128113;1098;22362;-77
2021/06/12 02:26:48;;;;;;;15.23;13.63;;;;;;;17.78;63.19;100314.75;127983;1098;22369;-77
2021/06/12 02:29:19;;;;;;;15.23;13.73;;;;;;;17.80;63.00;100319.90;128140;1098;22381;-77
2021/06/12 02:31:58;;;;;;;15.73;14.20;;;;;;;17.80;62.93;100314.55;128069;1097;22427;-77
2021/06/12 02:34:30;;;;;;;13.95;12.65;;;;;;;17.80;63.06;100314.55;128064;1098;22359;-77
2021/06/12 02:37:02;;;;;;;15.70;14.23;;;;;;;17.81;63.05;100316.18;128119;1098;22369;-78
2021/06/12 02:39:34;;;;;;;13.75;12.35;;;;;;;17.82;63.42;100313.28;128077;1095;24690;-78
2021/06/12 02:42:05;;;;;;;15.20;13.68;;;;;;;17.84;63.37;100316.56;128294;1095;22817;-79
2021/06/12 02:44:35;;;;;;;;;;;;;;;17.83;63.38;100314.94;128316;1095;23165;-76
2021/06/12 02:47:10;;;;;;;16.83;13.43;;;;;;;17.83;63.84;100320.28;128292;1095;21344;-77
2021/06/12 02:49:42;;;;;;;15.80;14.18;;;;;;;17.89;63.52;100321.25;128280;1095;22529;-78
2021/06/12 02:52:22;;;;;;;17.48;14.20;;;;;;;17.95;63.50;100322.25;128170;1095;24593;-77
2021/06/12 02:54:53;;;;;;;14.78;13.28;;;;;;;17.99;63.51;100312.75;128269;1095;22811;-78
2021/06/12 02:57:25;;;;;;;13.85;12.55;;;;;;;17.98;63.07;100325.30;128314;1095;24180;-76
2021/06/12 02:59:57;;;;;;;17.98;13.33;;;;;;;17.97;63.02;100312.17;128203;1095;22364;-77
2021/06/12 03:02:35;;;;;;;14.33;13.00;;;;;;;17.96;62.48;100313.19;128085;1098;22386;-77
2021/06/12 03:05:11;;;;;;;15.38;12.78;;;;;;;17.91;62.74;100313.84;128056;1098;22382;-77
2021/06/12 03:07:49;;;;;;;14.60;13.13;;;;;;;17.90;62.89;100309.55;128070;1098;22378;-78
2021/06/12 03:10:22;;;;;;;16.18;13.85;;;;;;;17.88;62.71;100306.26;128111;1095;22342;-78
2021/06/12 03:12:56;;;;;;;14.65;13.15;;;;;;;17.89;63.32;100299.88;128292;1095;22373;-76
2021/06/12 03:15:32;;;;;;;17.60;16.10;;;;;;;17.90;63.24;100301.53;128281;1095;24631;-78
2021/06/12 03:18:03;;;;;;;18.13;15.48;;;;;;;17.92;63.12;100301.30;128285;1095;24505;-78
2021/06/12 03:20:35;;;;;;;;;;;;;;;17.87;63.11;100296.62;128550;1092;22359;-78
2021/06/12 03:23:07;;;;;;;17.43;15.10;;;;;;;17.75;63.05;100285.76;128673;1092;21411;-76
2021/06/12 03:25:38;;;;;;;17.85;16.08;;;;;;;17.69;63.38;100297.30;128646;1092;22439;-76
2021/06/12 03:28:11;;;;;;;17.30;15.70;;;;;;;17.65;63.37;100288.09;128351;1095;22740;-78
2021/06/12 03:30:41;;;;;;;18.23;16.43;;;;;;;17.63;63.64;100293.66;128316;1095;22369;-78
2021/06/12 03:33:14;;;;;;;17.63;15.83;;;;;;;17.68;63.77;100290.34;128234;1095;22424;-77
2021/06/12 03:35:47;;;;;;;17.33;15.45;;;;;;;17.63;63.76;100288.33;128284;1095;24512;-77
2021/06/12 03:38:18;;;;;;;16.78;14.98;;;;;;;17.60;63.67;100285.27;128237;1095;22561;-77
2021/06/12 03:40:52;;;;;;;17.28;15.58;;;;;;;17.51;63.84;100278.53;128355;1095;23235;-77
2021/06/12 03:43:25;;;;;;;18.40;15.13;;;;;;;17.47;64.27;100280.00;128269;1095;22367;-77
2021/06/12 03:45:59;;;;;;;16.65;15.03;;;;;;;17.46;64.50;100287.20;128314;1092;22348;-76
2021/06/12 03:48:29;;;;;;;15.98;14.30;;;;;;;17.47;64.63;100280.00;128694;1092;24512;-78
2021/06/12 03:51:01;;;;;;;17.27;15.37;;;;;;;17.47;64.70;100280.00;128576;1092;22340;-80
2021/06/12 03:53:43;;;;;;;16.05;14.40;;;;;;;17.49;65.07;100277.92;128676;1092;23273;-78
2021/06/12 03:56:19;;;;;;;16.45;14.78;;;;;;;17.57;64.99;100275.82;128719;1092;24224;-76
2021/06/12 03:58:51;;;;;;;17.40;15.60;;;;;;;17.64;64.79;100276.59;128718;1092;22360;-76
2021/06/12 04:01:22;;;;;;;17.70;16.13;;;;;;;17.70;64.96;100276.78;128777;1092;24236;-77
2021/06/12 04:03:52;;;;;;;15.95;14.33;;;;;;;17.71;64.79;100275.73;128679;1092;23113;-77
2021/06/12 04:06:23;;;;;;;16.85;15.15;;;;;;;17.74;64.83;100278.79;128686;1092;24482;-77
2021/06/12 04:08:53;;;;;;;16.83;15.18;;;;;;;17.81;65.23;100276.10;128643;1092;22359;-77
2021/06/12 04:11:23;;;;;;;16.23;14.60;;;;;;;17.92;65.18;100274.57;128625;1092;22344;-77
2021/06/12 04:13:53;;;;;;;18.68;14.95;;;;;;;18.03;65.08;100271.22;128682;1092;22362;-77
2021/06/12 04:16:24;;;;;;;15.98;14.45;;;;;;;18.16;64.95;100271.09;128737;1092;22340;-77
2021/06/12 04:18:54;;;;;;;19.23;17.33;;;;;;;18.27;64.58;100266.88;128764;1092;24489;-77
2021/06/12 04:21:25;;;;;;;17.70;15.05;;;;;;;18.39;64.43;100264.28;128728;1090;24492;-78
2021/06/12 04:23:55;;;;;;;21.45;15.83;;;;;;;18.54;64.35;100265.56;128694;1092;22342;-76
2021/06/12 04:26:28;;;;;;;15.18;12.63;;;;;;;18.69;63.61;100275.08;128314;1095;22366;-78
2021/06/12 04:28:58;;;;;;;13.35;12.05;;;;;;;18.78;63.25;100269.23;128264;1095;22462;-77
2021/06/12 04:31:28;;;;;;;14.58;13.03;;;;;;;18.85;62.79;100269.16;128325;1095;22377;-77
2021/06/12 04:33:59;;;;;;;14.15;12.68;;;;;;;18.88;62.59;100276.74;128300;1095;24583;-76
2021/06/12 04:36:30;;;;;;;14.90;11.55;;;;;;;18.91;62.59;100272.80;128323;1095;22382;-77
2021/06/12 04:39:00;;;;;;;16.80;12.70;;;;;;;18.93;62.54;100271.55;128269;1095;22376;-78
2021/06/12 04:41:34;;;;;;;13.93;12.53;;;;;;;18.94;62.42;100278.53;128053;1098;22395;-77
2021/06/12 04:44:05;;;;;;;13.97;12.57;;;;;;;18.97;62.71;100271.91;128054;1099;22829;-77
2021/06/12 04:46:35;;;;;;;;;;;;;;;18.95;62.50;100280.16;128101;1098;22382;-76
2021/06/12 04:49:08;;;;;;;13.50;12.13;;;;;;;18.98;62.72;100276.22;128438;1097;22974;-77
2021/06/12 04:51:38;;;;;;;13.43;12.23;;;;;;;19.13;63.48;100276.66;128034;1098;22457;-77
2021/06/12 04:54:08;;;;;;;19.65;17.58;;;;;;;19.31;62.62;100272.30;128058;1098;22385;-77
2021/06/12 04:56:38;;;;;;;16.00;14.43;;;;;;;19.51;62.56;100278.19;128281;1098;22382;-77
2021/06/12 04:59:08;;;;;;;15.10;13.80;;;;;;;19.68;61.97;100273.02;128052;1098;22473;-77
2021/06/12 05:01:38;;;;;;;15.05;13.60;;;;;;;19.89;61.65;100266.30;128573;1095;23329;-77
2021/06/12 05:04:09;;;;;;;13.28;12.05;;;;;;;20.10;60.67;100273.80;128246;1095;25030;-78
2021/06/12 05:06:39;;;;;;;13.68;12.20;;;;;;;20.28;59.91;100277.41;128534;1092;22461;-78
2021/06/12 05:09:09;;;;;;;14.28;12.10;;;;;;;20.44;59.14;100263.30;128717;1095;25349;-76
2021/06/12 05:11:41;;;;;;;16.25;11.15;;;;;;;20.63;59.27;100264.82;128676;1092;24234;-76
2021/06/12 05:14:13;;;;;;;13.15;11.85;;;;;;;20.82;58.76;100261.97;128945;1094;25014;-77
2021/06/12 05:16:43;;;;;;;13.30;10.50;;;;;;;21.00;58.05;100263.69;128653;1095;22479;-77
2021/06/12 05:19:14;;;;;;;13.00;11.00;;;;;;;21.19;57.87;100257.05;128640;1095;24488;-77
2021/06/12 05:21:46;;;;;;;13.17;11.43;;;;;;;21.43;57.45;100248.94;128628;1092;25435;-77
2021/06/12 05:24:19;;;;;;;12.28;10.40;;;;;;;21.64;56.59;100245.53;128679;1095;22351;-77
2021/06/12 05:26:52;;;;;;;9.78;8.88;;;;;;;21.87;56.59;100246.45;128973;1095;22360;-77
2021/06/12 05:29:26;;;;;;;9.30;7.28;;;;;;;22.12;55.72;100238.74;128840;1092;22730;-77
2021/06/12 05:31:56;;;;;;;8.47;7.40;;;;;;;22.38;55.17;100231.88;128581;1095;24225;-78
2021/06/12 05:34:27;;;;;;;7.58;6.50;;;;;;;22.59;54.33;100240.22;128243;1094;22346;-78
2021/06/12 05:37:01;;;;;;;11.60;7.65;;;;;;;22.77;53.76;100240.73;128273;1095;22352;-77
2021/06/12 05:39:33;;;;;;;7.83;5.68;;;;;;;22.91;53.04;100243.86;128287;1095;23119;-77
2021/06/12 05:42:06;;;;;;;7.43;6.83;;;;;;;23.07;53.03;100241.38;128242;1095;22362;-77
2021/06/12 05:44:51;;;;;;;6.93;6.25;;;;;;;23.37;52.84;100251.66;128279;1095;22349;-77
2021/06/12 05:47:21;;;;;;;8.15;6.75;;;;;;;23.82;52.49;100251.26;128427;1095;22367;-77
2021/06/12 05:49:51;;;;;;;10.30;6.95;;;;;;;24.18;50.74;100248.83;128314;1095;22350;-77
2021/06/12 05:52:21;;;;;;;8.83;7.05;;;;;;;24.51;50.34;100244.99;128389;1095;22461;-77
2021/06/12 05:54:52;;;;;;;;;;;;;;;24.95;50.55;100247.33;128663;1095;22347;-78
2021/06/12 05:57:23;;;;;;;7.68;6.98;;;;;;;25.42;49.32;100251.78;128362;1095;21269;-78
2021/06/12 05:59:53;;;;;;;9.15;7.00;;;;;;;25.76;47.89;100251.28;128069;1098;22372;-78
2021/06/12 06:02:23;;;;;;;9.10;6.55;;;;;;;25.80;46.71;100253.19;128207;1098;22362;-78
2021/06/12 06:04:55;;;;;;;7.55;6.85;;;;;;;25.71;46.54;100243.95;128051;1098;22367;-78
2021/06/12 06:07:25;;;;;;;6.88;6.15;;;;;;;25.52;46.40;100238.27;128276;1098;22378;-78
2021/06/12 06:10:08;;;;;;;8.27;5.77;;;;;;;25.34;46.61;100245.02;128009;1101;22381;-77
2021/06/12 06:12:41;;;;;;;7.25;6.30;;;;;;;25.16;47.01;100245.54;127650;1101;22382;-78
2021/06/12 06:15:16;;;;;;;7.43;5.78;;;;;;;25.00;47.11;100243.84;127981;1098;24527;-78
2021/06/12 06:17:47;;;;;;;7.73;6.88;;;;;;;24.95;47.58;100241.92;128020;1098;24627;-78
2021/06/12 06:20:18;;;;;;;9.23;6.15;;;;;;;24.89;47.14;100243.81;128012;1098;22445;-78
2021/06/12 06:22:54;;;;;;;7.98;5.63;;;;;;;24.84;47.08;100240.27;128054;1098;22380;-78
2021/06/12 06:25:25;;;;;;;5.73;5.18;;;;;;;24.74;46.77;100245.64;127997;1098;24038;-78
2021/06/12 06:27:55;;;;;;;7.23;6.08;;;;;;;24.67;47.16;100240.48;128029;1098;24617;-77
2021/06/12 06:30:25;;;;;;;9.85;6.08;;;;;;;24.64;46.84;100246.41;128057;1098;23291;-77
2021/06/12 06:32:55;;;;;;;7.80;5.60;;;;;;;24.68;46.69;100235.89;127998;1098;22388;-78
2021/06/12 06:35:28;;;;;;;6.13;5.53;;;;;;;24.68;46.89;100231.29;128049;1095;22372;-78
2021/06/12 06:37:58;;;;;;;8.20;5.93;;;;;;;24.69;47.04;100232.09;128244;1095;24508;-78
2021/06/12 06:40:33;;;;;;;13.48;6.88;;;;;;;24.76;46.78;100233.50;128241;1095;24505;-77
2021/06/12 06:43:04;;;;;;;8.95;5.98;;;;;;;24.99;47.09;100228.69;128259;1095;22362;-78
2021/06/12 06:45:34;;;;;;;8.40;5.43;;;;;;;25.34;46.25;100233.39;128299;1095;22359;-78
2021/06/12 06:48:09;;;;;;;6.78;6.08;;;;;;;25.64;45.74;100231.80;128262;1095;24095;-77
2021/06/12 06:50:41;;;;;;;10.60;5.33;;;;;;;25.89;45.34;100228.28;128240;1095;22420;-78
2021/06/12 06:53:19;;;;;;;7.78;5.38;;;;;;;26.00;44.41;100219.08;128329;1092;24323;-78
2021/06/12 06:55:51;;;;;;;7.25;4.73;;;;;;;26.15;44.34;100208.20;128591;1092;22445;-77
2021/06/12 06:58:21;;;;;;;7.33;5.68;;;;;;;26.34;44.02;100205.72;128339;1092;22359;-77
2021/06/12 07:00:51;;;;;;;5.93;5.13;;;;;;;26.38;43.17;100214.10;128388;1092;22348;-77
2021/06/12 07:03:22;;;;;;;7.75;4.78;;;;;;;26.40;43.06;100209.23;128728;1092;22446;-77
2021/06/12 07:05:54;;;;;;;5.15;4.38;;;;;;;26.44;43.26;100197.56;128665;1092;22792;-76
2021/06/12 07:08:26;;;;;;;7.68;4.95;;;;;;;26.55;43.00;100205.67;128402;1092;22344;-77
2021/06/12 07:10:59;;;;;;;8.25;5.85;;;;;;;26.55;42.81;100195.64;128280;1095;24251;-76
2021/06/12 07:13:31;;;;;;;10.95;5.13;;;;;;;26.64;42.68;100196.69;128292;1095;22802;-76
2021/06/12 07:16:03;;;;;;;7.65;4.93;;;;;;;26.78;42.70;100191.47;128262;1095;25685;-76
2021/06/12 07:18:38;;;;;;;10.10;4.93;;;;;;;26.81;42.05;100190.91;128294;1095;22372;-76
2021/06/12 07:21:08;;;;;;;6.08;4.95;;;;;;;26.81;41.75;100188.20;128283;1095;24188;-77
2021/06/12 07:23:38;;;;;;;11.33;5.40;;;;;;;26.65;41.60;100187.47;128310;1095;22361;-77
2021/06/12 07:26:09;;;;;;;;;;;;;;;26.42;41.58;100185.38;128317;1095;22375;-76
2021/06/12 07:28:42;;;;;;;6.83;4.80;;;;;;;26.35;42.46;100176.73;128297;1095;21253;-76
2021/06/12 07:31:32;;;;;;;7.48;6.05;;;;;;;26.29;42.17;100178.64;128170;1095;22464;-76
2021/06/12 07:34:06;;;;;;;7.13;5.73;;;;;;;26.20;42.55;100178.42;128087;1095;22385;-76
2021/06/12 07:36:38;;;;;;;10.70;5.43;;;;;;;26.19;42.77;100167.85;128223;1092;24254;-76
2021/06/12 07:39:09;;;;;;;11.95;6.43;;;;;;;26.25;42.59;100172.17;128505;1092;24483;-76
2021/06/12 07:41:40;;;;;;;8.00;5.50;;;;;;;26.27;42.68;100173.52;128092;1095;22357;-77
2021/06/12 07:44:12;;;;;;;7.85;4.88;;;;;;;26.33;42.52;100171.61;128139;1095;22471;-78
2021/06/12 07:46:43;;;;;;;8.10;5.50;;;;;;;26.34;42.63;100181.35;128216;1095;22364;-74
2021/06/12 07:49:13;;;;;;;7.43;6.03;;;;;;;26.34;42.63;100186.77;128073;1095;24618;-76
2021/06/12 07:51:44;;;;;;;10.93;7.30;;;;;;;26.38;42.56;100192.44;128127;1095;22372;-78
2021/06/12 07:54:14;;;;;;;9.53;6.48;;;;;;;26.33;42.48;100187.05;128097;1095;23279;-76
2021/06/12 07:56:43;;;;;;;8.80;6.95;;;;;;;26.29;42.56;100176.77;127931;1098;22826;-77
2021/06/12 07:59:14;;;;;;;7.05;5.53;;;;;;;26.35;42.77;100168.61;127868;1099;22301;-76
2021/06/12 08:01:43;;;;;;;7.83;5.70;;;;;;;26.56;43.04;100163.94;128098;1097;22397;-77
2021/06/12 08:04:13;;;;;;;7.25;5.68;;;;;;;26.73;42.41;100161.70;128096;1098;22472;-76
2021/06/12 08:06:44;;;;;;;7.65;5.45;;;;;;;26.82;41.71;100162.71;127923;1098;24194;-77
2021/06/12 08:09:14;;;;;;;7.43;5.43;;;;;;;26.86;42.05;100166.51;127889;1098;22353;-76
2021/06/12 08:11:44;;;;;;;6.23;5.63;;;;;;;27.16;41.93;100162.81;128097;1098;22813;-76
2021/06/12 08:14:14;;;;;;;9.33;5.85;;;;;;;27.51;41.77;100166.31;127903;1095;25015;-76
2021/06/12 08:16:43;;;;;;;7.23;5.03;;;;;;;27.86;40.75;100158.97;127889;1095;22374;-75
2021/06/12 08:19:13;;;;;;;;;;;;;;;28.29;39.94;100150.86;128139;1095;24511;-75
2021/06/12 08:21:46;;;;;;;8.93;3.95;;;;;;;28.71;38.64;100150.06;128176;1095;22358;-75
2021/06/12 08:24:22;;;;;;;7.45;4.35;;;;;;;29.12;38.18;100151.39;127934;1098;24195;-76
2021/06/12 08:26:53;;;;;;;10.25;4.65;;;;;;;29.33;37.72;100146.45;127899;1098;22382;-76
2021/06/12 08:29:23;;;;;;;6.53;4.85;;;;;;;29.59;37.28;100144.07;128158;1098;22420;-76
2021/06/12 08:31:53;;;;;;;11.88;4.28;;;;;;;29.87;36.54;100136.80;127901;1098;22467;-76
2021/06/12 08:34:23;;;;;;;4.80;3.60;;;;;;;30.20;35.97;100134.80;127877;1098;24505;-76
2021/06/12 08:36:53;;;;;;;10.27;4.10;;;;;;;30.53;35.20;100140.11;127925;1098;22379;-76
2021/06/12 08:39:26;;;;;;;4.23;3.25;;;;;;;30.53;34.22;100138.19;127935;1098;24507;-76
2021/06/12 08:41:57;;;;;;;10.68;6.13;;;;;;;30.38;34.18;100136.58;128249;1095;22407;-75
2021/06/12 08:44:28;;;;;;;6.33;4.20;;;;;;;30.21;33.82;100141.86;128476;1093;22449;-75
2021/06/12 08:46:58;;;;;;;10.13;4.23;;;;;;;30.01;34.10;100132.15;128556;1092;24224;-76
2021/06/12 08:49:28;;;;;;;5.70;3.60;;;;;;;29.91;34.28;100137.80;128495;1092;24240;-76
2021/06/12 08:51:58;;;;;;;5.83;4.10;;;;;;;29.91;33.99;100133.16;128452;1095;23290;-76
2021/06/12 08:54:28;;;;;;;6.27;3.80;;;;;;;30.06;34.31;100123.05;128448;1092;22353;-76
2021/06/12 08:56:58;;;;;;;6.85;4.30;;;;;;;30.14;33.66;100119.64;128519;1094;24467;-77
2021/06/12 08:59:34;;;;;;;7.23;4.00;;;;;;;29.92;33.90;100115.70;128476;1090;22387;-76
2021/06/12 09:02:06;;;;;;;7.55;4.20;;;;;;;29.74;34.16;100119.33;128211;1095;22357;-77
2021/06/12 09:04:43;;;;;;;5.40;4.20;;;;;;;29.60;34.11;100121.23;128521;1095;22343;-77
2021/06/12 09:07:32;;;;;;;12.23;4.80;;;;;;;29.33;34.34;100111.88;128500;1095;24272;-77
2021/06/12 09:10:04;;;;;;;8.00;4.95;;;;;;;28.99;35.41;100118.40;128413;1095;22796;-78
2021/06/12 09:12:50;;;;;;;7.98;4.23;;;;;;;28.95;35.57;100116.55;128506;1094;24174;-76
2021/06/12 09:15:20;;;;;;;5.90;3.35;;;;;;;28.89;35.08;100107.69;128252;1092;24522;-77
2021/06/12 09:17:51;;;;;;;4.95;3.80;;;;;;;28.83;34.94;100114.30;128095;1095;24563;-75
2021/06/12 09:20:48;;;;;;;5.98;3.60;;;;;;;28.78;35.04;100104.29;128240;1095;22375;-78
2021/06/12 09:23:18;;;;;;;7.95;4.38;;;;;;;28.78;35.40;100106.20;127895;1098;22407;-76
2021/06/12 09:25:49;;;;;;;7.85;4.45;;;;;;;28.79;35.39;100096.94;127864;1098;22385;-75
2021/06/12 09:28:19;;;;;;;5.83;3.85;;;;;;;28.79;35.35;100096.94;127828;1098;25000;-74
2021/06/12 09:30:50;;;;;;;6.70;3.60;;;;;;;28.74;35.09;100099.75;127809;1098;24514;-75
2021/06/12 09:33:36;;;;;;;6.48;4.10;;;;;;;28.66;35.24;100101.23;127856;1098;24501;-75
2021/06/12 09:36:07;;;;;;;7.73;4.03;;;;;;;28.46;35.82;100088.74;127960;1097;24662;-74
2021/06/12 09:38:44;;;;;;;4.20;3.50;;;;;;;28.37;35.85;100096.70;128073;1098;22386;-75
2021/06/12 09:41:29;;;;;;;6.05;3.43;;;;;;;28.30;36.05;100100.88;128081;1095;22366;-75
2021/06/12 09:44:04;;;;;;;4.60;3.73;;;;;;;28.17;35.87;100091.54;128087;1098;22427;-75
2021/06/12 09:46:34;;;;;;;5.38;3.60;;;;;;;28.02;36.25;100089.80;128121;1095;23978;-75
2021/06/12 09:49:08;;;;;;;7.43;4.43;;;;;;;27.87;36.41;100095.44;128083;1095;22415;-75
2021/06/12 09:51:39;;;;;;;6.15;4.05;;;;;;;27.69;37.05;100103.20;128089;1095;24263;-75
2021/06/12 09:54:12;;;;;;;9.00;3.78;;;;;;;27.50;37.16;100104.22;128092;1095;24511;-75
2021/06/12 09:56:58;;;;;;;7.53;3.90;;;;;;;27.27;37.30;100114.72;128147;1096;22436;-76
2021/06/12 09:59:43;;;;;;;10.05;4.05;;;;;;;26.89;38.76;100110.91;128118;1098;24202;-77
2021/06/12 10:02:37;;;;;;;6.15;4.40;;;;;;;26.34;40.39;100100.11;128470;1092;22392;-77
2021/06/12 10:05:12;;;;;;;8.25;4.25;;;;;;;25.96;42.04;100082.69;128493;1092;22378;-78
2021/06/12 10:07:45;;;;;;;6.35;4.50;;;;;;;25.68;42.98;100075.97;128430;1092;22366;-78
2021/06/12 10:10:16;;;;;;;5.98;4.85;;;;;;;25.46;44.30;100078.98;128537;1092;22369;-78
2021/06/12 10:12:47;;;;;;;6.70;4.70;;;;;;;25.32;45.25;100076.86;128505;1092;22372;-76
2021/06/12 10:15:19;;;;;;;6.00;5.17;;;;;;;25.26;46.02;100071.73;128514;1092;23131;-77
2021/06/12 10:17:53;;;;;;;5.88;5.38;;;;;;;25.19;46.26;100068.47;128460;1092;22378;-77
2021/06/12 10:20:26;;;;;;;8.65;5.70;;;;;;;25.13;46.61;100056.87;128176;1092;22417;-77
2021/06/12 10:22:57;;;;;;;6.90;5.30;;;;;;;25.11;46.73;100051.72;128494;1092;24502;-77
2021/06/12 10:25:27;;;;;;;6.90;6.30;;;;;;;25.16;47.11;100058.20;128516;1092;24502;-76
2021/06/12 10:27:59;;;;;;;10.00;7.23;;;;;;;25.25;47.72;100064.68;128567;1092;23056;-76
2021/06/12 10:30:31;;;;;;;8.88;6.23;;;;;;;25.47;48.19;100058.98;128508;1092;22356;-77
2021/06/12 10:33:03;;;;;;;11.20;6.28;;;;;;;25.62;47.83;100055.42;128649;1092;22344;-77
2021/06/12 10:35:33;;;;;;;6.98;5.55;;;;;;;25.75;47.29;100057.55;128486;1092;22366;-76
2021/06/12 10:38:14;;;;;;;6.15;5.58;;;;;;;25.88;46.91;100050.77;128632;1092;25001;-75
2021/06/12 10:40:56;;;;;;;6.48;5.95;;;;;;;25.99;46.43;100038.81;128641;1092;25069;-76
2021/06/12 10:43:29;;;;;;;5.80;5.25;;;;;;;26.13;46.37;100039.84;128525;1092;22337;-77
2021/06/12 10:46:07;;;;;;;6.33;5.38;;;;;;;26.32;46.00;100039.19;128517;1092;23167;-77
2021/06/12 10:48:52;;;;;;;6.15;5.48;;;;;;;26.50;45.63;100035.87;128532;1092;24166;-77
2021/06/12 10:51:46;;;;;;;6.93;5.88;;;;;;;26.62;44.85;100039.02;128574;1092;22348;-77
2021/06/12 10:54:24;;;;;;;5.55;5.13;;;;;;;26.66;44.67;100037.38;128099;1095;24498;-76
2021/06/12 10:57:01;;;;;;;11.73;6.10;;;;;;;26.60;43.97;100040.41;128096;1095;22482;-77
2021/06/12 10:59:50;;;;;;;6.10;5.50;;;;;;;26.49;44.08;100042.36;128070;1095;22361;-77
2021/06/12 11:02:28;;;;;;;6.23;5.63;;;;;;;26.31;44.19;100042.99;128097;1095;22500;-76
2021/06/12 11:05:04;;;;;;;6.58;6.08;;;;;;;26.16;44.32;100043.90;128077;1095;22357;-79
2021/06/12 11:07:45;;;;;;;8.13;6.30;;;;;;;25.99;45.20;100052.34;128090;1095;23204;-76
2021/06/12 11:10:18;;;;;;;8.63;6.20;;;;;;;25.85;44.96;100037.80;127983;1098;22388;-81
2021/06/12 11:12:52;;;;;;;11.35;6.38;;;;;;;25.72;45.90;100029.14;128145;1098;24511;-76
2021/06/12 11:15:23;;;;;;;8.30;6.85;;;;;;;25.60;46.10;100025.95;127878;1098;23492;-77
2021/06/12 11:18:23;;;;;;;7.98;7.25;;;;;;;25.48;45.81;100028.14;127825;1100;24528;-77
2021/06/12 11:21:02;;;;;;;7.70;7.10;;;;;;;25.31;46.59;100013.03;127806;1101;22371;-76
2021/06/12 11:23:54;;;;;;;8.00;7.23;;;;;;;25.22;46.38;100019.27;127818;1100;22388;-75
2021/06/12 11:26:24;;;;;;;9.90;7.75;;;;;;;25.11;47.08;100013.88;127855;1101;24209;-76
2021/06/12 11:29:11;;;;;;;8.28;7.33;;;;;;;25.08;47.36;100016.28;127864;1101;22449;-78
2021/06/12 11:31:41;;;;;;;8.63;7.80;;;;;;;25.04;47.33;100004.41;127979;1098;22782;-76
2021/06/12 11:34:20;;;;;;;8.03;7.33;;;;;;;25.05;47.55;100008.72;127573;1098;22377;-76
2021/06/12 11:37:27;;;;;;;9.95;8.35;;;;;;;25.05;47.98;100011.42;128081;1095;24177;-75
2021/06/12 11:40:03;;;;;;;8.65;7.83;;;;;;;25.00;47.82;100011.45;128142;1095;24512;-77
2021/06/12 11:42:48;;;;;;;7.93;7.23;;;;;;;25.02;48.02;100011.97;128101;1095;23118;-76